»·PEaware :: UAL982 KBZN-KPDX

UAL982 :: KBZN-KPDX

FLIGHT INFORMATION

Flight Status: Arrived
Operator:
United Airlines
More flights by this operator :: More flights under this callsign
Pilot: Justin S. (9599)
Aircraft: BOEING 737-200
(B732)
More flights by this aircraft type
Origin: KBZN Gallatin
United States
Destination: KPDX Portland Intl
United States
More flights between these airports :: More routes between these airports
Route: +HIA5 HIA J16 BTG
File this flight plan on PilotEdge
Remarks: twitch.tv / jsnapp
Altitude:
(Current/Filed)
32,000ft
Speed:
(Current/Filed)
500kts
Departed: 15-Mar-20 03:15 PM
Arrived: 15-Mar-20 04:45 PM
Distance/Time
Traveled:
479nm/1:30
Distance/Time
To Go:
Arrived

Flight Plot

Page will automatically refresh every two minutes.

Flight plan parsing failed; only flown route is shown


Map Options




Map Legend


Flown Route
Filed Route
Departure Airport
Arrival Airport
Navaid (VOR, NDB)
Fix

Horizontal Profiles

Position Reports

Time Latitude Longitude Heading Altitude Ground
Speed
15-Mar-20 14:59 45.778854 -111.160470 218 4447ft 0kts
15-Mar-20 15:00 45.778854 -111.160470 218 4447ft 0kts
15-Mar-20 15:01 45.778854 -111.160470 218 4447ft 0kts
15-Mar-20 15:02 45.778854 -111.160470 218 4447ft 0kts
15-Mar-20 15:03 45.778854 -111.160470 218 4447ft 0kts
15-Mar-20 15:04 45.778973 -111.160334 218 4447ft 0kts
15-Mar-20 15:05 45.779401 -111.160390 133 4447ft 1kts
15-Mar-20 15:06 45.779409 -111.160401 134 4447ft 0kts
15-Mar-20 15:07 45.779409 -111.160401 134 4447ft 0kts
15-Mar-20 15:08 45.779255 -111.160179 134 4447ft 8kts
15-Mar-20 15:09 45.779182 -111.159481 60 4447ft 0kts
15-Mar-20 15:10 45.780942 -111.160711 318 4447ft 17kts
15-Mar-20 15:11 45.784745 -111.166018 315 4447ft 20kts
15-Mar-20 15:12 45.787221 -111.167570 45 4447ft 5kts
15-Mar-20 15:13 45.787135 -111.165204 134 4447ft 34kts
15-Mar-20 15:14 45.758547 -111.136956 200 5475ft 173kts
15-Mar-20 15:15 45.746431 -111.207366 271 7668ft 214kts
15-Mar-20 15:16 45.731587 -111.289511 239 10818ft 214kts
15-Mar-20 15:17 45.696950 -111.376248 239 12694ft 275kts
15-Mar-20 15:18 45.684286 -111.487477 271 15483ft 295kts
15-Mar-20 15:19 45.699649 -111.612290 281 16864ft 334kts
15-Mar-20 15:20 45.730643 -111.730663 290 18493ft 350kts
15-Mar-20 15:21 45.773822 -111.857934 290 20274ft 355kts
15-Mar-20 15:22 45.811411 -111.988688 287 21892ft 356kts
15-Mar-20 15:23 45.831874 -112.126183 270 23347ft 350kts
15-Mar-20 15:24 45.850226 -112.267055 288 24306ft 372kts
15-Mar-20 15:25 45.869887 -112.412470 270 25233ft 372kts
15-Mar-20 15:26 45.865036 -112.560154 257 26253ft 368kts
15-Mar-20 15:27 45.856605 -112.700709 264 27266ft 370kts
15-Mar-20 15:28 45.857160 -112.848411 266 28301ft 368kts
15-Mar-20 15:29 45.859216 -112.995285 265 29253ft 364kts
15-Mar-20 15:30 45.859538 -113.139735 264 30107ft 360kts
15-Mar-20 15:31 45.857618 -113.283012 263 30857ft 356kts
15-Mar-20 15:32 45.854581 -113.425352 263 31506ft 355kts
15-Mar-20 15:33 45.851545 -113.567545 263 32035ft 356kts
15-Mar-20 15:34 45.849253 -113.703627 263 32169ft 366kts
15-Mar-20 15:35 45.847458 -113.852738 264 32148ft 380kts
15-Mar-20 15:36 45.846077 -114.007589 264 32148ft 391kts
15-Mar-20 15:37 45.844580 -114.166130 264 32160ft 400kts
15-Mar-20 15:38 45.842496 -114.327677 264 32163ft 401kts
15-Mar-20 15:39 45.839813 -114.485677 263 32169ft 388kts
15-Mar-20 15:40 45.836462 -114.638253 263 32157ft 377kts
15-Mar-20 15:41 45.832483 -114.772182 262 32158ft 374kts
15-Mar-20 15:42 45.827408 -114.922007 261 32167ft 375kts
15-Mar-20 15:43 45.822406 -115.071585 262 32178ft 376kts
15-Mar-20 15:44 45.817868 -115.222505 262 32194ft 382kts
15-Mar-20 15:45 45.813698 -115.377653 263 32192ft 392kts
15-Mar-20 15:46 45.809969 -115.535746 264 32195ft 400kts
15-Mar-20 15:47 45.807058 -115.669758 263 32196ft 405kts
15-Mar-20 15:48 45.805510 -115.842577 266 32190ft 410kts
15-Mar-20 15:49 45.806226 -116.007393 265 32162ft 413kts
15-Mar-20 15:50 45.804960 -116.171682 264 32089ft 413kts
15-Mar-20 15:51 45.800642 -116.336378 263 32088ft 411kts
15-Mar-20 15:52 45.793408 -116.498877 261 32088ft 403kts
15-Mar-20 15:53 45.785449 -116.650048 261 32084ft 398kts
15-Mar-20 15:54 45.777879 -116.805524 261 32091ft 393kts
15-Mar-20 15:55 45.772708 -116.961403 263 32103ft 389kts
15-Mar-20 15:56 45.769943 -117.116406 264 32144ft 385kts
15-Mar-20 15:57 45.767953 -117.271812 264 32148ft 399kts
15-Mar-20 15:58 45.763918 -117.435485 263 32144ft 419kts
15-Mar-20 15:59 45.756970 -117.604963 262 32146ft 429kts
15-Mar-20 16:00 45.749067 -117.766886 261 32144ft 429kts
15-Mar-20 16:01 45.741567 -117.936561 262 32149ft 422kts
15-Mar-20 16:02 45.735297 -118.103925 263 32169ft 417kts
15-Mar-20 16:03 45.729111 -118.269638 262 32174ft 416kts
15-Mar-20 16:05 45.721851 -118.435017 262 32173ft 416kts
15-Mar-20 16:06 45.713946 -118.601131 262 32179ft 417kts
15-Mar-20 16:07 45.706775 -118.758377 262 32179ft 419kts
15-Mar-20 16:08 45.699577 -118.925279 267 32208ft 423kts
15-Mar-20 16:09 45.701303 -119.093599 271 32242ft 425kts
15-Mar-20 16:10 45.706991 -119.262737 267 32234ft 426kts
15-Mar-20 16:11 45.708986 -119.432877 267 32237ft 428kts
15-Mar-20 16:12 45.711315 -119.604359 268 32237ft 431kts
15-Mar-20 16:13 45.714071 -119.767597 267 32243ft 433kts
15-Mar-20 16:14 45.717176 -119.940564 268 32238ft 435kts
15-Mar-20 16:15 45.720219 -120.114354 268 32238ft 437kts
15-Mar-20 16:16 45.722999 -120.289165 267 32238ft 439kts
15-Mar-20 16:17 45.725311 -120.464055 267 32241ft 440kts
15-Mar-20 16:18 45.727027 -120.640237 267 32218ft 441kts
15-Mar-20 16:19 45.728120 -120.804922 267 32216ft 442kts
15-Mar-20 16:20 45.729045 -120.959290 267 30743ft 423kts
15-Mar-20 16:21 45.730518 -121.126441 267 28509ft 415kts
15-Mar-20 16:22 45.732648 -121.290231 267 26382ft 407kts
15-Mar-20 16:23 45.734835 -121.451269 265 24316ft 400kts
15-Mar-20 16:24 45.738951 -121.609153 268 22307ft 393kts
15-Mar-20 16:24 45.744708 -121.733617 267 20701ft 387kts
15-Mar-20 16:26 45.748961 -121.910991 264 18397ft 374kts
15-Mar-20 16:27 45.747426 -122.056169 263 16526ft 363kts
15-Mar-20 16:27 45.744566 -122.171865 257 15841ft 328kts
15-Mar-20 16:28 45.730648 -122.297637 255 14705ft 307kts
15-Mar-20 16:30 45.713636 -122.434879 255 13360ft 292kts
15-Mar-20 16:30 45.700142 -122.533281 256 11496ft 315kts
15-Mar-20 16:31 45.681154 -122.656876 254 9629ft 322kts
15-Mar-20 16:32 45.699061 -122.779644 295 8239ft 313kts
15-Mar-20 16:33 45.731460 -122.888455 295 7224ft 284kts
15-Mar-20 16:34 45.759249 -122.982990 294 6450ft 247kts
15-Mar-20 16:35 45.749279 -123.068310 194 5206ft 241kts
15-Mar-20 16:36 45.714700 -123.021540 96 5001ft 197kts
15-Mar-20 16:37 45.707377 -122.934054 96 4991ft 236kts
15-Mar-20 16:38 45.681284 -122.849573 113 4026ft 227kts
15-Mar-20 16:39 45.659488 -122.773584 108 3229ft 197kts
15-Mar-20 16:40 45.639963 -122.719524 110 2215ft 126kts
15-Mar-20 16:41 45.624957 -122.677559 114 1291ft 114kts
15-Mar-20 16:42 45.609521 -122.634209 111 722ft 123kts
15-Mar-20 16:43 45.594730 -122.595494 114 42ft 93kts
15-Mar-20 16:44 45.583731 -122.568806 198 38ft 29kts
15-Mar-20 16:45 45.585743 -122.575572 298 38ft 19kts
15-Mar-20 16:46 45.588471 -122.582608 298 38ft 21kts
15-Mar-20 16:47 45.591406 -122.590159 297 38ft 22kts
15-Mar-20 16:48 45.591249 -122.593994 206 38ft 1kts
15-Mar-20 16:49 45.591118 -122.594083 206 38ft 0kts

Navigation Log

Ident Type
Flight plan parsing failed, navigation log unavailable